createdAt,value
2018-05-12T00:02:22.920Z,95.90
2018-05-12T00:04:51.196Z,96.00
2018-05-12T00:07:19.493Z,95.90
2018-05-12T00:09:46.999Z,95.80
2018-05-12T00:12:14.492Z,95.90
2018-05-12T00:14:42.025Z,95.90
2018-05-12T00:17:09.503Z,96.10
2018-05-12T00:19:36.975Z,96.10
2018-05-12T00:22:04.512Z,96.00
2018-05-12T00:24:32.748Z,96.10
2018-05-12T00:27:00.324Z,96.10
2018-05-12T00:29:27.826Z,96.20
2018-05-12T00:31:55.338Z,96.10
2018-05-12T00:34:22.909Z,96.10
2018-05-12T00:36:51.166Z,96.40
2018-05-12T00:39:18.650Z,96.10
2018-05-12T00:41:46.900Z,96.10
2018-05-12T00:44:15.891Z,96.30
2018-05-12T00:46:43.453Z,96.00
2018-05-12T00:49:10.931Z,96.10
2018-05-12T00:51:39.245Z,96.00
2018-05-12T00:54:06.757Z,96.00
2018-05-12T00:56:34.309Z,96.10
2018-05-12T00:59:01.813Z,96.20
2018-05-12T01:01:29.311Z,96.20
2018-05-12T01:03:56.781Z,96.10
2018-05-12T01:06:24.264Z,96.00
2018-05-12T01:08:52.521Z,96.10
2018-05-12T01:11:20.071Z,96.10
2018-05-12T01:13:47.762Z,96.20
2018-05-12T01:16:15.250Z,96.30
2018-05-12T01:18:42.721Z,96.40
2018-05-12T01:21:10.214Z,96.30
2018-05-12T01:23:38.447Z,96.70
2018-05-12T01:26:05.932Z,96.30
2018-05-12T01:28:33.496Z,96.30
2018-05-12T01:31:01.113Z,96.50
2018-05-12T01:33:28.606Z,96.40
2018-05-12T01:35:56.184Z,96.40
2018-05-12T01:38:24.439Z,96.50
2018-05-12T01:40:52.006Z,96.50
2018-05-12T01:43:19.564Z,97.00
2018-05-12T01:45:47.132Z,96.70
2018-05-12T01:48:15.388Z,97.00
2018-05-12T01:50:42.855Z,96.60
2018-05-12T01:53:10.365Z,96.70
2018-05-12T01:55:37.838Z,96.60
2018-05-12T01:58:05.314Z,96.60
2018-05-12T02:00:32.800Z,96.60
2018-05-12T02:03:01.039Z,96.60
2018-05-12T02:05:28.523Z,96.50
2018-05-12T02:07:56.000Z,96.60
2018-05-12T02:10:24.264Z,96.70
2018-05-12T02:12:52.516Z,96.80
2018-05-12T02:15:19.997Z,96.70
2018-05-12T02:17:48.250Z,96.50
2018-05-12T02:20:15.720Z,96.50
2018-05-12T02:22:43.963Z,96.80
2018-05-12T02:25:11.443Z,96.60
2018-05-12T02:27:39.004Z,96.70
2018-05-12T02:30:06.474Z,96.70
2018-05-12T02:32:34.737Z,96.70
2018-05-12T02:35:02.199Z,97.00
2018-05-12T02:37:29.670Z,96.70
2018-05-12T02:39:57.908Z,96.60
2018-05-12T02:42:25.388Z,96.60
2018-05-12T02:44:53.651Z,96.60
2018-05-12T02:47:21.213Z,96.60
2018-05-12T02:49:48.692Z,96.60
2018-05-12T02:52:16.944Z,96.80
2018-05-12T02:54:44.509Z,96.70
2018-05-12T02:57:11.980Z,96.90
2018-05-12T02:59:40.395Z,96.90
2018-05-12T03:02:07.903Z,96.90
2018-05-12T03:04:36.147Z,96.90
2018-05-12T03:07:03.639Z,96.90
2018-05-12T03:09:31.191Z,96.90
2018-05-12T03:11:58.769Z,96.90
2018-05-12T03:14:27.028Z,96.90
2018-05-12T03:16:54.515Z,96.90
2018-05-12T03:19:21.994Z,96.90
2018-05-12T03:21:49.508Z,96.90
2018-05-12T03:24:17.058Z,97.00
2018-05-12T03:26:44.522Z,97.10
2018-05-12T03:29:11.995Z,97.00
2018-05-12T03:31:40.223Z,97.00
2018-05-12T03:34:07.706Z,97.00
2018-05-12T03:36:35.178Z,97.10
2018-05-12T03:39:03.410Z,97.20
2018-05-12T03:41:30.995Z,97.20
2018-05-12T03:43:58.476Z,97.20
2018-05-12T03:46:26.706Z,97.10
2018-05-12T03:48:54.288Z,97.10
2018-05-12T03:51:22.567Z,97.20
2018-05-12T03:53:50.853Z,97.50
2018-05-12T03:56:19.096Z,97.30
2018-05-12T03:58:46.676Z,97.20
2018-05-12T04:01:14.161Z,97.20
2018-05-12T04:03:41.640Z,97.30
2018-05-12T04:06:21.028Z,97.40
2018-05-12T04:09:01.330Z,97.40
2018-05-12T04:11:40.723Z,97.30
2018-05-12T04:14:08.242Z,97.30
2018-05-12T04:16:35.715Z,97.40
2018-05-12T04:19:03.290Z,97.40
2018-05-12T04:21:30.860Z,97.40
2018-05-12T04:23:59.107Z,97.60
2018-05-12T04:26:26.586Z,97.60
2018-05-12T04:28:54.814Z,97.70
2018-05-12T04:31:22.311Z,97.60
2018-05-12T04:33:49.820Z,97.70
2018-05-12T04:36:17.287Z,97.80
2018-05-12T04:38:44.759Z,97.70
2018-05-12T04:41:12.241Z,97.80
2018-05-12T04:43:39.810Z,97.80
2018-05-12T04:46:08.047Z,97.80
2018-05-12T04:48:35.518Z,97.80
2018-05-12T04:51:03.004Z,97.80
2018-05-12T04:53:31.227Z,97.80
2018-05-12T04:55:58.719Z,97.80
2018-05-12T04:58:26.291Z,98.00
2018-05-12T05:00:54.562Z,97.90
2018-05-12T05:03:22.799Z,98.00
2018-05-12T05:05:50.273Z,97.90
2018-05-12T05:08:17.760Z,98.10
2018-05-12T05:10:45.312Z,98.10
2018-05-12T05:13:13.577Z,98.10
2018-05-12T05:15:41.046Z,98.10
2018-05-12T05:18:09.312Z,98.20
2018-05-12T05:20:36.881Z,98.10
2018-05-12T05:23:05.120Z,98.00
2018-05-12T05:25:32.654Z,98.00
2018-05-12T05:28:00.126Z,97.90
2018-05-12T05:30:27.586Z,97.90
2018-05-12T05:32:55.068Z,97.80
2018-05-12T05:35:22.588Z,97.70
2018-05-12T05:37:50.093Z,97.60
2018-05-12T05:40:17.649Z,97.60
2018-05-12T05:42:45.172Z,97.50
2018-05-12T05:45:12.648Z,97.50
2018-05-12T05:47:40.212Z,97.40
2018-05-12T05:50:07.979Z,97.30
2018-05-12T05:52:35.445Z,97.20
2018-05-12T05:55:02.952Z,97.00
2018-05-12T05:57:30.418Z,97.00
2018-05-12T05:59:57.909Z,96.80
2018-05-12T06:02:25.393Z,96.60
2018-05-12T06:04:53.623Z,96.50
2018-05-12T06:07:21.108Z,96.50
2018-05-12T06:09:50.104Z,96.30
2018-05-12T06:12:17.670Z,96.30
2018-05-12T06:14:45.907Z,96.60
2018-05-12T06:17:13.391Z,96.50
2018-05-12T06:19:40.872Z,96.10
2018-05-12T06:22:08.407Z,95.90
2018-05-12T06:24:35.922Z,95.60
2018-05-12T06:27:03.428Z,95.60
2018-05-12T06:29:31.735Z,95.80
2018-05-12T06:31:59.931Z,95.80
2018-05-12T06:34:27.407Z,95.70
2018-05-12T06:36:54.994Z,95.60
2018-05-12T06:39:22.490Z,95.60
2018-05-12T06:41:49.951Z,95.40
2018-05-12T06:44:17.436Z,95.30
2018-05-12T06:46:45.010Z,95.20
2018-05-12T06:49:12.563Z,95.00
2018-05-12T06:51:40.037Z,94.90
2018-05-12T06:54:07.611Z,94.70
2018-05-12T06:56:35.843Z,94.70
2018-05-12T06:59:03.422Z,94.70
2018-05-12T07:01:30.982Z,94.60
2018-05-12T07:03:59.214Z,93.80
2018-05-12T07:06:26.737Z,93.80
2018-05-12T07:08:54.966Z,93.40
2018-05-12T07:11:22.441Z,93.40
2018-05-12T07:13:49.954Z,93.40
2018-05-12T07:16:17.422Z,93.80
2018-05-12T07:18:44.898Z,93.60
2018-05-12T07:21:12.355Z,93.60
2018-05-12T07:23:39.830Z,93.30
2018-05-12T07:26:07.407Z,93.20
2018-05-12T07:28:35.644Z,92.10
2018-05-12T07:31:03.122Z,92.10
2018-05-12T07:33:32.114Z,92.30
2018-05-12T07:35:59.600Z,92.30
2018-05-12T07:38:27.060Z,91.40
2018-05-12T07:40:54.539Z,91.00
2018-05-12T07:43:22.003Z,91.90
2018-05-12T07:45:49.482Z,91.10
2018-05-12T07:48:16.950Z,90.00
2018-05-12T07:50:44.430Z,90.30
2018-05-12T07:53:12.658Z,90.70
2018-05-12T07:55:40.235Z,90.70
2018-05-12T07:58:07.729Z,90.20
2018-05-12T08:00:35.970Z,90.40
2018-05-12T08:03:03.442Z,90.50
2018-05-12T08:05:32.500Z,90.30
2018-05-12T08:07:59.980Z,90.20
2018-05-12T08:10:28.224Z,89.20
2018-05-12T08:12:55.706Z,89.10
2018-05-12T08:15:23.268Z,88.50
2018-05-12T08:17:50.759Z,88.40
2018-05-12T08:20:19.017Z,87.70
2018-05-12T08:22:46.489Z,87.60
2018-05-12T08:25:14.722Z,89.10
2018-05-12T08:27:42.197Z,89.00
2018-05-12T08:30:09.669Z,88.40
2018-05-12T08:32:37.222Z,88.70
2018-05-12T08:35:04.813Z,87.60
2018-05-12T08:37:32.331Z,87.60
2018-05-12T08:39:59.809Z,87.40
2018-05-12T08:42:28.059Z,86.10
2018-05-12T08:44:55.612Z,85.90
2018-05-12T08:47:23.230Z,85.00
2018-05-12T08:49:50.707Z,85.60
2018-05-12T08:52:18.177Z,85.70
2018-05-12T08:54:45.652Z,85.40
2018-05-12T08:57:13.239Z,84.90
2018-05-12T08:59:41.487Z,83.00
2018-05-12T09:02:08.966Z,82.80
2018-05-12T09:04:37.232Z,82.30
2018-05-12T09:07:05.480Z,83.80
2018-05-12T09:09:32.941Z,83.70
2018-05-12T09:12:00.436Z,83.00
2018-05-12T09:14:28.668Z,81.60
2018-05-12T09:16:56.174Z,81.50
2018-05-12T09:19:24.494Z,80.60
2018-05-12T09:21:51.970Z,80.50
2018-05-12T09:24:19.523Z,80.60
2018-05-12T09:26:47.013Z,78.70
2018-05-12T09:29:15.330Z,80.10
2018-05-12T09:31:42.805Z,80.00
2018-05-12T09:34:10.316Z,79.40
2018-05-12T09:36:37.862Z,79.90
2018-05-12T09:39:06.114Z,77.00
2018-05-12T09:41:33.612Z,76.90
2018-05-12T09:44:01.246Z,78.50
2018-05-12T09:46:29.487Z,77.90
2018-05-12T09:48:56.965Z,77.60
2018-05-12T09:51:24.518Z,78.20
2018-05-12T09:53:51.997Z,77.70
2018-05-12T09:56:20.251Z,75.30
2018-05-12T09:58:47.824Z,75.10
2018-05-12T10:01:15.290Z,76.80
2018-05-12T10:03:43.522Z,78.10
2018-05-12T10:06:11.029Z,78.00
2018-05-12T10:08:39.367Z,77.90
2018-05-12T10:11:06.949Z,77.80
2018-05-12T10:13:34.455Z,79.50
2018-05-12T10:16:01.950Z,80.10
2018-05-12T10:18:29.555Z,79.50
2018-05-12T10:20:57.072Z,79.20
2018-05-12T10:23:24.549Z,80.50
2018-05-12T10:25:52.802Z,79.10
2018-05-12T10:28:20.364Z,79.00
2018-05-12T10:30:47.921Z,78.00
2018-05-12T10:33:15.440Z,77.20
2018-05-12T10:35:43.160Z,79.00
2018-05-12T10:38:11.397Z,78.30
2018-05-12T10:40:38.875Z,78.90
2018-05-12T10:43:06.330Z,78.20
2018-05-12T10:45:33.863Z,79.10
2018-05-12T10:48:01.375Z,78.40
2018-05-12T10:50:29.613Z,76.90
2018-05-12T10:52:57.235Z,76.70
2018-05-12T10:55:24.745Z,78.00
2018-05-12T10:57:52.295Z,79.30
2018-05-12T11:00:19.864Z,78.30
2018-05-12T11:02:47.324Z,77.50
2018-05-12T11:05:15.571Z,79.30
2018-05-12T11:07:43.043Z,78.30
2018-05-12T11:10:10.526Z,79.10
2018-05-12T11:12:38.757Z,77.20
2018-05-12T11:15:06.241Z,77.00
2018-05-12T11:17:33.727Z,76.80
2018-05-12T11:20:01.250Z,76.70
2018-05-12T11:22:28.741Z,76.20
2018-05-12T11:24:56.320Z,75.60
2018-05-12T11:27:23.791Z,76.30
2018-05-12T11:29:51.278Z,76.80
2018-05-12T11:32:20.262Z,77.20
2018-05-12T11:34:47.887Z,77.10
2018-05-12T11:37:15.390Z,76.10
2018-05-12T11:39:42.860Z,75.40
2018-05-12T11:42:11.113Z,75.60
2018-05-12T11:44:38.675Z,75.50
2018-05-12T11:47:06.089Z,75.40
2018-05-12T11:49:33.550Z,75.20
2018-05-12T11:52:01.107Z,74.00
2018-05-12T11:54:29.475Z,74.00
2018-05-12T11:56:56.987Z,74.70
2018-05-12T11:59:24.553Z,71.90
2018-05-12T12:01:52.102Z,74.30
2018-05-12T12:04:19.563Z,73.40
2018-05-12T12:06:47.122Z,73.40
2018-05-12T12:09:14.578Z,73.50
2018-05-12T12:11:42.043Z,72.40
2018-05-12T12:14:10.295Z,70.70
2018-05-12T12:16:37.787Z,70.60
2018-05-12T12:19:05.323Z,71.60
2018-05-12T12:21:32.787Z,70.20
2018-05-12T12:24:00.266Z,72.30
2018-05-12T12:26:28.506Z,72.90
2018-05-12T12:28:55.974Z,72.80
2018-05-12T12:31:23.437Z,73.00
2018-05-12T12:33:50.982Z,71.40
2018-05-12T12:36:18.446Z,70.70
2018-05-12T12:38:45.910Z,70.30
2018-05-12T12:41:14.147Z,70.40
2018-05-12T12:43:41.619Z,70.40
2018-05-12T12:46:09.103Z,72.00
2018-05-12T12:48:37.362Z,67.70
2018-05-12T12:51:04.853Z,67.70
2018-05-12T12:53:33.095Z,67.20
2018-05-12T12:56:00.648Z,67.10
2018-05-12T12:58:28.137Z,71.40
2018-05-12T13:00:56.359Z,68.40
2018-05-12T13:03:23.833Z,68.30
2018-05-12T13:05:51.397Z,67.10
2018-05-12T13:08:18.867Z,67.30
2018-05-12T13:10:46.429Z,64.50
2018-05-12T13:13:14.694Z,62.10
2018-05-12T13:15:42.249Z,62.00
2018-05-12T13:18:09.714Z,60.70
2018-05-12T13:20:37.180Z,64.10
2018-05-12T13:23:05.415Z,61.30
2018-05-12T13:25:32.904Z,61.20
2018-05-12T13:28:00.410Z,61.30
2018-05-12T13:30:28.600Z,60.00
2018-05-12T13:32:56.080Z,59.90
2018-05-12T13:35:23.638Z,61.70
2018-05-12T13:37:51.195Z,60.70
2018-05-12T13:40:18.740Z,61.20
2018-05-12T13:42:46.907Z,60.10
2018-05-12T13:45:14.383Z,60.00
2018-05-12T13:47:41.980Z,60.40
2018-05-12T13:50:10.228Z,58.70
2018-05-12T13:52:37.683Z,58.70
2018-05-12T13:55:05.240Z,58.60
2018-05-12T13:57:32.721Z,58.50
2018-05-12T14:00:00.975Z,57.80
2018-05-12T14:02:28.522Z,57.70
2018-05-12T14:04:56.101Z,56.80
2018-05-12T14:07:24.445Z,56.00
2018-05-12T14:09:51.858Z,55.90
2018-05-12T14:12:19.329Z,56.20
2018-05-12T14:14:46.795Z,56.20
2018-05-12T14:17:14.274Z,55.70
2018-05-12T14:19:41.742Z,57.60
2018-05-12T14:22:09.322Z,56.30
2018-05-12T14:24:37.595Z,57.00
2018-05-12T14:27:05.059Z,57.00
2018-05-12T14:29:33.287Z,54.80
2018-05-12T14:32:00.780Z,54.70
2018-05-12T14:34:28.249Z,55.40
2018-05-12T14:36:56.467Z,54.80
2018-05-12T14:39:23.961Z,54.80
2018-05-12T14:41:51.417Z,54.30
2018-05-12T14:44:18.879Z,54.60
2018-05-12T14:46:47.147Z,56.30
2018-05-12T14:49:14.650Z,56.30
2018-05-12T14:51:42.117Z,54.50
2018-05-12T14:54:09.618Z,54.80
2018-05-12T14:56:37.086Z,54.80
2018-05-12T14:59:04.633Z,55.30
2018-05-12T15:01:32.200Z,55.10
2018-05-12T15:03:59.654Z,54.30
2018-05-12T15:06:27.132Z,54.30
2018-05-12T15:08:55.345Z,53.70
2018-05-12T15:11:22.950Z,53.60
2018-05-12T15:13:50.401Z,52.70
2018-05-12T15:16:17.909Z,52.90
2018-05-12T15:18:45.363Z,52.70
2018-05-12T15:21:12.837Z,53.50
2018-05-12T15:23:40.327Z,53.30
2018-05-12T15:26:09.300Z,52.70
2018-05-12T15:28:36.775Z,52.70
2018-05-12T15:31:04.337Z,52.70
2018-05-12T15:33:32.603Z,53.30
2018-05-12T15:36:00.071Z,52.60
2018-05-12T15:38:28.112Z,52.80
2018-05-12T15:40:55.599Z,53.10
2018-05-12T15:43:23.819Z,52.90
2018-05-12T15:45:51.300Z,52.90
2018-05-12T15:48:18.784Z,53.60
2018-05-12T15:50:46.242Z,53.20
2018-05-12T15:53:13.702Z,53.10
2018-05-12T15:55:41.162Z,51.80
2018-05-12T15:58:09.418Z,53.10
2018-05-12T16:00:36.975Z,52.50
2018-05-12T16:03:04.475Z,51.20
2018-05-12T16:05:31.895Z,51.60
2018-05-12T16:07:59.461Z,52.10
2018-05-12T16:10:27.021Z,51.20
2018-05-12T16:12:54.580Z,51.60
2018-05-12T16:15:22.807Z,52.10
2018-05-12T16:17:50.399Z,52.10
2018-05-12T16:20:18.052Z,53.00
2018-05-12T16:22:45.531Z,52.60
2018-05-12T16:25:13.092Z,53.00
2018-05-12T16:27:40.650Z,52.60
2018-05-12T16:30:08.100Z,52.50
2018-05-12T16:32:35.654Z,52.70
2018-05-12T16:35:03.113Z,52.70
2018-05-12T16:37:30.669Z,52.40
2018-05-12T16:39:58.129Z,52.20
2018-05-12T16:42:25.707Z,52.50
2018-05-12T16:44:53.943Z,53.10
2018-05-12T16:47:21.432Z,53.00
2018-05-12T16:49:49.695Z,53.20
2018-05-12T16:52:17.169Z,53.20
2018-05-12T16:54:45.402Z,53.90
2018-05-12T16:57:12.864Z,53.90
2018-05-12T16:59:40.352Z,53.30
2018-05-12T17:02:07.914Z,53.50
2018-05-12T17:04:36.153Z,54.50
2018-05-12T17:07:03.643Z,54.00
2018-05-12T17:09:31.114Z,54.30
2018-05-12T17:11:59.357Z,54.70
2018-05-12T17:14:26.834Z,54.60
2018-05-12T17:16:55.112Z,55.00
2018-05-12T17:19:23.361Z,55.50
2018-05-12T17:21:50.856Z,55.50
2018-05-12T17:24:19.111Z,56.60
2018-05-12T17:26:46.663Z,56.60
2018-05-12T17:29:14.145Z,57.20
2018-05-12T17:31:42.453Z,58.20
2018-05-12T17:34:09.924Z,58.10
2018-05-12T17:36:37.425Z,58.10
2018-05-12T17:39:04.971Z,58.70
2018-05-12T17:41:32.527Z,58.90
2018-05-12T17:44:00.007Z,59.80
2018-05-12T17:46:28.247Z,60.90
2018-05-12T17:48:55.718Z,60.80
2018-05-12T17:51:23.189Z,61.10
2018-05-12T17:53:50.735Z,62.00
2018-05-12T17:56:18.207Z,60.80
2018-05-12T17:58:46.483Z,61.60
2018-05-12T18:01:14.025Z,61.50
2018-05-12T18:03:41.592Z,62.00
2018-05-12T18:06:09.100Z,62.60
2018-05-12T18:08:36.615Z,63.00
2018-05-12T18:11:04.858Z,63.70
2018-05-12T18:13:32.326Z,63.60
2018-05-12T18:15:59.788Z,63.80
2018-05-12T18:18:27.260Z,64.60
2018-05-12T18:20:54.819Z,64.50
2018-05-12T18:23:23.062Z,65.40
2018-05-12T18:25:50.552Z,65.20
2018-05-12T18:28:18.105Z,66.20
2018-05-12T18:30:45.656Z,66.80
2018-05-12T18:33:13.149Z,65.80
2018-05-12T18:35:40.624Z,66.50
2018-05-12T18:38:08.091Z,67.60
2018-05-12T18:40:35.589Z,68.10
2018-05-12T18:43:03.148Z,68.50
2018-05-12T18:45:30.619Z,69.00
2018-05-12T18:47:58.857Z,68.90
2018-05-12T18:50:26.440Z,68.90
2018-05-12T18:52:53.907Z,69.50
2018-05-12T18:55:22.158Z,70.40
2018-05-12T18:57:49.838Z,70.20
2018-05-12T19:00:17.395Z,70.70
2018-05-12T19:02:44.935Z,71.00
2018-05-12T19:05:12.503Z,71.30
2018-05-12T19:07:40.083Z,71.60
2018-05-12T19:10:08.343Z,72.00
2018-05-12T19:12:35.804Z,72.00
2018-05-12T19:15:03.272Z,72.30
2018-05-12T19:17:31.529Z,73.10
2018-05-12T19:19:59.003Z,72.90
2018-05-12T19:22:27.252Z,73.80
2018-05-12T19:24:54.807Z,73.60
2018-05-12T19:27:22.305Z,74.00
2018-05-12T19:29:50.538Z,74.70
2018-05-12T19:32:18.018Z,74.70
2018-05-12T19:34:46.266Z,75.20
2018-05-12T19:37:13.854Z,75.10
2018-05-12T19:39:41.327Z,75.30
2018-05-12T19:42:09.556Z,75.90
2018-05-12T19:44:37.131Z,75.80
2018-05-12T19:47:04.627Z,76.80
2018-05-12T19:49:32.924Z,76.80
2018-05-12T19:52:00.380Z,76.80
2018-05-12T19:54:27.855Z,77.90
2018-05-12T19:56:55.437Z,77.30
2018-05-12T19:59:23.607Z,78.50
2018-05-12T20:01:51.103Z,77.60
2018-05-12T20:04:19.341Z,77.80
2018-05-12T20:06:46.809Z,77.70
2018-05-12T20:09:14.360Z,78.10
2018-05-12T20:11:41.839Z,78.30
2018-05-12T20:14:10.087Z,79.10
2018-05-12T20:16:38.335Z,79.30
2018-05-12T20:19:05.796Z,79.30
2018-05-12T20:21:33.264Z,79.40
2018-05-12T20:24:00.731Z,79.70
2018-05-12T20:26:28.321Z,79.80
2018-05-12T20:28:56.543Z,80.20
2018-05-12T20:31:24.066Z,80.10
2018-05-12T20:33:51.527Z,80.70
2018-05-12T20:36:19.035Z,81.00
2018-05-12T20:38:46.509Z,80.80
2018-05-12T20:41:13.983Z,81.00
2018-05-12T20:43:42.220Z,82.10
2018-05-12T20:46:09.811Z,82.10
2018-05-12T20:48:38.039Z,82.20
2018-05-12T20:51:05.595Z,82.20
2018-05-12T20:53:33.086Z,82.50
2018-05-12T20:56:00.630Z,82.50
2018-05-12T20:58:28.201Z,82.80
2018-05-12T21:00:55.670Z,83.10
2018-05-12T21:03:23.924Z,83.60
2018-05-12T21:05:51.394Z,83.50
2018-05-12T21:08:18.866Z,83.90
2018-05-12T21:10:47.109Z,83.90
2018-05-12T21:13:14.572Z,83.70
2018-05-12T21:15:42.848Z,84.00
2018-05-12T21:18:10.344Z,83.90
2018-05-12T21:20:37.806Z,84.20
2018-05-12T21:23:05.275Z,84.40
2018-05-12T21:25:32.753Z,84.30
2018-05-12T21:28:00.234Z,84.50
2018-05-12T21:30:27.713Z,84.60
2018-05-12T21:32:55.962Z,84.80
2018-05-12T21:35:23.522Z,84.70
2018-05-12T21:37:51.122Z,84.40
2018-05-12T21:40:18.548Z,84.70
2018-05-12T21:42:46.824Z,85.00
2018-05-12T21:45:15.070Z,84.60
2018-05-12T21:47:42.548Z,85.00
2018-05-12T21:50:10.112Z,85.40
2018-05-12T21:52:37.587Z,85.50
2018-05-12T21:55:05.894Z,86.00
2018-05-12T21:57:33.394Z,86.70
2018-05-12T22:00:00.868Z,86.10
2018-05-12T22:02:28.338Z,86.20
2018-05-12T22:04:56.583Z,86.30
2018-05-12T22:07:24.047Z,87.20
2018-05-12T22:09:51.537Z,86.30
2018-05-12T22:12:19.002Z,86.60
2018-05-12T22:14:46.468Z,87.00
2018-05-12T22:17:13.966Z,87.30
2018-05-12T22:19:41.587Z,87.30
2018-05-12T22:22:09.054Z,87.50
2018-05-12T22:24:36.546Z,87.50
2018-05-12T22:27:04.042Z,87.90
2018-05-12T22:29:31.511Z,88.00
2018-05-12T22:31:58.980Z,88.20
2018-05-12T22:34:26.444Z,88.50
2018-05-12T22:36:53.900Z,88.30
2018-05-12T22:39:21.386Z,88.30
2018-05-12T22:41:48.941Z,88.30
2018-05-12T22:44:17.220Z,89.00
2018-05-12T22:46:44.685Z,88.20
2018-05-12T22:49:12.171Z,88.20
2018-05-12T22:51:39.632Z,88.60
2018-05-12T22:54:07.100Z,88.50
2018-05-12T22:56:34.563Z,88.80
2018-05-12T22:59:02.039Z,88.70
2018-05-12T23:01:29.511Z,88.80
2018-05-12T23:03:56.980Z,88.80
2018-05-12T23:06:24.438Z,88.80
2018-05-12T23:08:51.906Z,89.10
2018-05-12T23:11:20.135Z,89.20
2018-05-12T23:13:47.602Z,89.10
2018-05-12T23:16:15.084Z,89.30
2018-05-12T23:18:42.587Z,89.70
2018-05-12T23:21:10.073Z,90.10
2018-05-12T23:23:37.561Z,90.10
2018-05-12T23:26:05.039Z,90.20
2018-05-12T23:28:33.291Z,90.20
2018-05-12T23:31:00.772Z,90.20
2018-05-12T23:33:28.244Z,90.40
2018-05-12T23:35:55.731Z,90.30
2018-05-12T23:38:23.196Z,90.50
2018-05-12T23:40:50.703Z,90.50
2018-05-12T23:43:18.171Z,90.50
2018-05-12T23:45:45.640Z,91.00
2018-05-12T23:48:13.099Z,90.70
2018-05-12T23:50:40.585Z,90.70
2018-05-12T23:53:08.158Z,90.60
2018-05-12T23:55:35.639Z,90.80
2018-05-12T23:58:03.871Z,90.90
